Airfield :







YOU CAN JOIN US ON...

 
LOGIN :

Register | Disclaimer

   EN    FR    IT 

 









Legend :    VFR   Marginal VFR   IFR   Intensive IFR   Very Intensive IFR
Visi :
Ceiling :
>= 8 km
>= 3000ft
5 to 8 km
1000 to 3000 ft
1500m to 5 km
500 to 1000 ft
800 to 1500m
200 to 500 ft
< 800m
< 200 ft
Symbols :   Thunderstorms  Fog  Heavy snow  Heavy precipitations  Wind > 20 kt






- Airport Elevation : 577 ft


KVSF - Hartness State (Springfield)

CURRENT METAR :
  • 191515Z AUTO 00000KT 3/4SM -SN BR OVC006 00/00 A2976 RMK AO2 P0006 T00000000

EXPIRED METARs :
  • 191501Z AUTO 00000KT 1SM -SN BR BKN006 OVC015 00/00 A2975 RMK AO2 P0002 T00000000
  • 191454Z AUTO 00000KT 1/2SM -SN FG SCT006 OVC015 00/00 A2975 RMK AO2 RAE35UPB35E46SNB46 SLP081 P0013 60029 T00000000 53002
  • 191443Z AUTO 18003KT 3/4SM UP BR FEW005 BKN015 OVC031 00/00 A2975 RMK AO2 RAE35UPB35 P0012 T00000000
  • 191436Z AUTO 00000KT 3/4SM UP BR FEW005 SCT014 OVC032 00/00 A2975 RMK AO2 RAE35UPB35 P0011 T00000000
  • 191415Z AUTO 00000KT 1 1/2SM RA BR FEW016 OVC032 01/00 A2974 RMK AO2 P0006 T00060000
  • 191404Z AUTO 00000KT 2 1/2SM -RA BR SCT015 OVC034 01/00 A2974 RMK AO2 P0002 T00060000
  • 191347Z AUTO 00000KT 2SM -RA BR SCT015 OVC035 01/00 A2974 RMK AO2 P0008 T00060000
  • 191328Z AUTO 00000KT 3/4SM -RA BR BKN013 OVC037 01/00 A2974 RMK AO2 P0005 T00060000
  • 191320Z AUTO 00000KT 2 1/2SM -RA BR SCT013 OVC038 01/00 A2974 RMK AO2 VIS 2V4 P0004 T00060000
  • 191302Z AUTO 00000KT 1 3/4SM RA BR OVC036 00/00 A2973 RMK AO2 P0002 T00000000
  • 191254Z AUTO 00000KT 3SM RA BR FEW004 OVC038 01/00 A2974 RMK AO2 SLP076 P0007 T00060000

TAF N/A



MET'MAP, your aeronautical weather chart ! - Copyright ORBIFLY December 2007 - Disclaimer

ORBIFLY MET'MAP TEAM :

Programming & Development : Alexandra Zaïnal
Concept & Development : Baudouin d'Aumeries
Co-Development & Prog : Marc-Olivier Méhu
Technical & hardware support : Manuel Goepfert

Contact : metmap@orbifly.com




SOURCES & CREDITS :

   NOAA